Terminal Aerodrome Forecast
Issued by NWS

Home | Current Version | Previous Version | Text Only | Print | Product List | Glossary On
Versions: 1 2 3 4 5 6 7 8 9 10 11 12 13 14 15 16
000
FTUS43 KIWX 241700
TAFSBN
TAF
KSBN 241731Z 2418/2518 23019G29KT 5SM BLSN BKN080
      TEMPO 2418/2420 3/4SM -SHSN BLSN OVC020
     FM250000 29012KT 5SM -SHSN BKN020=

USA.gov is the U.S. government's official web portal to all federal, state and local government web resources and services.